Terminal Aerodrome Forecast
Issued by NWS

Home | Current Version | Previous Version | Text Only | Print | Product List | Glossary On
Versions: 1 2 3 4 5 6 7 8 9 10 11 12 13 14 15 16 17 18 19 20 21 22
000
FTUS43 KSGF 202334
TAFJLN
TAF
KJLN 202334Z 2100/2124 24007KT P6SM SCT035 BKN100
     FM210700 VRB03KT P6SM BKN014
     FM211100 28007KT P6SM BKN008 OVC014
     FM211500 28007KT P6SM BKN025
     FM211700 29008KT P6SM SCT040=

USA.gov is the U.S. government's official web portal to all federal, state and local government web resources and services.